Racecast

Jack Geisler

Temperance Bedford (MI) · 12 · SECMI D1MONROE · Compare head to head

Athlete rating 127.3 2019 XC season
Best race 134.4 XC
Races 68
Seasons 6 2014 — 2019

RankedNation #10094·MI #1238·MI D1 #858·SEC #98·Team #39 ?

Rating scale ?

Cross Country

2019 XC 120.5

Temperance Bedford (MI) · Grade 12

Date Meet Event Result Place Rating Difficulty PR/SR Flags
2019-10-26 Lake Erie Metro Park OFFICIAL 5000m 17:44.7 40th · 7th on team 126.5 +0.055 ★CR CSR RSR
2019-10-17 Hudson Mills Metropark - OFFICIAL 5000m 17:50.6 33rd · 7th on team 123.7 +0.036 ★CR CSR
2019-10-12 Munson Park 5000m 18:20.6 10th · 4th on team 122.4 +0.054 ★CR CSR
2019-10-05 Portage West MS 5000m 17:44.2 188th · 7th on team 124.0 +0.038 ★PR ★CR SR CSR RSR
2019-09-28 Lake Erie Metro Park OFFICIAL 5000m 18:35.6 32nd · 6th on team 120.0 +0.055 CR CSR
2019-09-24 Indian Creek OFFICIAL 5000m 18:23 40th · 7th on team 121.3 +0.039 ★CR CSR RSR
2019-09-21 Ella Sharp Park OFFICIAL 5000m 18:29.5 162nd · 6th on team 119.8 +0.038 ★CR CSR RSR
2019-09-10 Hudson Mills Metropark - OFFICIAL 5000m 19:08.8 79th · 6th on team 114.6 +0.036 CSR RSR
2019-09-07 Hedges Boyer Park 5000m 18:20.9 184th · 6th on team 112.0 -0.036 PR ★CR SR CSR RSR

2018 XC 115.1

Temperance Bedford (MI) · Grade 11

Date Meet Event Result Place Rating Difficulty PR/SR Flags
2018-10-27 Lake Erie Metro Park OFFICIAL 5000m 19:03.7 32nd · 7th on team 117.8 +0.055 CSR
2018-10-18 Hudson Mills Metropark - OFFICIAL 5000m 19:06.1 88th · 11th on team 115.1 +0.036 CR CSR
2018-10-13 Munson Park 5000m 18:47 29th · 10th on team 118.8 +0.054 PR CR SR CSR RSR
2018-10-09 Indian Creek OFFICIAL 5000m 19:19 10th · 9th on team 116.5 +0.039 CSR
2018-10-06 Portage West MS 5000m 19:43.6 200th · 10th on team 112.3 +0.038 CSR
2018-09-29 Lake Erie Metro Park OFFICIAL 5000m 19:07.8 37th · 10th on team 117.3 +0.055 SR CSR RSR
2018-09-21 Ella Sharp Park OFFICIAL 5000m 19:42.5 84th · 9th on team 113.3 +0.038 CSR
2018-09-06 Willow Metropark OFFICIAL 5000m 19:30.3 65th · 3rd on team 113.5 +0.048 ★CR SR CSR RSR
2018-08-31 Oakland University 4000m 15:55.4 54th · 5th on team 111.0 +0.054 SR CSR RSR

2017 XC 111.0

Temperance Bedford (MI) · Grade 10

Date Meet Event Result Place Rating Difficulty PR/SR Flags
2017-10-28 Lake Erie Metro Park OFFICIAL 5000m 19:00.3 41st · 7th on team 117.3 +0.055 PR CR SR CSR RSR
2017-10-19 Hudson Mills Metropark - OFFICIAL 5000m 19:11.3 97th · 7th on team 115.1 +0.036 CR CSR
2017-10-10 Indian Creek OFFICIAL 5000m 19:05.8 10th · 9th on team 115.6 +0.039 PR CR SR CSR
2017-10-07 Portage West MS 5000m 19:34.7 192nd · 6th on team 113.7 +0.038 CSR
2017-09-30 Lake Erie Metro Park OFFICIAL 5000m 19:06.2 47th · 7th on team 116.1 +0.055 PR CR SR CSR
2017-09-22 Ella Sharp Park OFFICIAL 5000m 19:15.7 14th · 8th on team 116.7 +0.038 PR CR SR CSR RSR
2017-09-12 Hudson Mills Metropark - OFFICIAL 5000m 19:23.7 71st · 5th on team 113.3 +0.036 CR SR CSR RSR
2017-09-09 Hedges Boyer Park 5000m 20:26.4 199th · 6th on team 100.1 -0.036 SR CSR
2017-09-01 Oakland University 4000m 16:50.8 111th · 12th on team 102.4 +0.054 SR CSR RSR
2017-08-26 Walsh Park 5000m 20:54.8 74th · 18th on team 99.6 -0.009 ★CR SR CSR RSR

2016 XC 108.7

Temperance Bedford (MI) · Grade 9

Date Meet Event Result Place Rating Difficulty PR/SR Flags
2016-10-29 Lake Erie Metro Park OFFICIAL 5000m 19:59.9 60th · 7th on team 112.1 +0.055 CR CSR
2016-10-20 Hudson Mills Metropark - OFFICIAL 5000m 20:43.5 146th · 15th on team 105.7 +0.036
2016-10-15 Hudson Mills Metropark - OFFICIAL 5000m 20:00.1 64th · 9th on team 110.6 +0.036 CR CSR
2016-10-08 Portage West MS 5000m 19:23 232nd · 8th on team 113.6 +0.038 PR CR SR CSR RSR
2016-10-01 Pearson's Metro Park 5000m 19:59.3 41st · 10th on team 103.5 -0.022 ★CR CSR
2016-09-27 Pioneer HS 5000m 20:30.5 74th · 7th on team 111.4 +0.067 ★CR CSR RSR
2016-09-23 Ella Sharp Park OFFICIAL 5000m 20:11.3 78th · 12th on team 109.7 +0.038 CR CSR
2016-09-17 Springfield Oaks County Park OFFICIAL 5000m 21:14 95th · 7th on team 109.5 +0.067 ★CR CSR
2016-09-13 Heritage Park (Adrian) OFFICIAL 5000m 20:45.3 86th · 8th on team 111.0 +0.084 ★CR CSR RSR
2016-09-10 Hedges Boyer Park 5000m 19:59.1 192nd · 5th on team 102.9 -0.036 PR CR SR CSR
2016-09-02 Oakland University 4000m 15:48.9 50th · 5th on team 110.4 +0.054 ★PR ★CR SR CSR RSR
2016-08-25 Heritage Park (Adrian) OFFICIAL 5000m 22:13.9 31st · 13th on team 103.6 +0.084 PR CR SR CSR RSR

2015 XC 117.5

Temperance Bedford (MI) · Grade 8

Date Meet Event Result Place Rating Difficulty PR/SR Flags
2015-10-24 Hudson Mills Metropark - OFFICIAL 2735m 12:38.7 81st · 6th on team 109.8 ★PR ★CR SR CSR
2015-10-17 Munson Park 3200m 12:41.7 14th · 6th on team 132.3 +0.034 ★PR ★CR SR CSR
2015-10-14 Munson Park 3200m 12:52.2 26th · 6th on team 129.6 +0.034 PR CR SR CSR
2015-09-30 Hudson Mills Metropark - OFFICIAL 3200m 12:55.3 29th · 7th on team 134.4 +0.062 PR ★CR ★R SR CSR RSR
2015-09-26 Sterling State Park 3218m 13:12.1 27th · 6th on team 131.8 +0.057 ★PR ★CR R SR CSR RSR
2015-09-16 Mill Pond Park 3621m 15:24.6 36th · 7th on team 86.7 +0.099 ★PR ★CR SR CSR
2015-09-12 Hedges Boyer Park 3200m 13:39.6 20th · 6th on team 108.0 -0.089 PR ★CR R SR CSR RSR
2015-08-27 Eastwood HS 3200m 14:00.8 78th · 8th on team 107.7 -0.060 PR ★CR R SR CSR RSR

2014 XC 83.1

Temperance Bedford (MI) · Grade 7

Date Meet Event Result Place Rating Difficulty PR/SR Flags
2014-10-11 Munson Park 2500m 16:52.7 73rd · 20th on team 74.6 ★PR ★CR SR CSR
2014-10-04 Fostoria HS 3200m 18:14.2 254th · 21st on team 82.9 -0.073 ★CR CSR
2014-09-27 Pearson's Metro Park 3200m 18:55.2 201st · 21st on team 81.4 -0.067 ★CR CSR
2014-09-06 Hedges Boyer Park 3200m 16:44 299th · 13th on team 88.0 -0.089 PR CR SR CSR
2014-08-27 Indian Creek OFFICIAL 3200m 19:02 17th · 17th on team 88.8 +0.038 PR ★CR R SR CSR RSR

Track & Field

2019 TF 104.9

Temperance Bedford (MI) · Grade 11

Date Meet Event Result Place Rating Difficulty PR/SR Flags
2019-05-15 Eagle Invite 1600m 5:21.1 61st · 6th on team 106.7 -0.033
2019-05-15 Eagle Invite 800m 2:27.29 36th · 2nd on team 103.5 -0.033 ★PR SR
2019-04-30 SEC-R: Monroe & Bedford @ Skyline 3200m 11:35.64 12th · 5th on team 106.3 -0.033 ★PR SR
2019-04-23 SEC Red Division - Bedford vs Saline 3200m 11:51.03 12th · 6th on team 105.0 -0.033 PR SR RSR
2019-04-23 SEC Red Division - Bedford vs Saline 1600m 5:20.84 23rd · 9th on team 107.5 -0.033 ★PR SR RSR
2019-04-09 SEC-R: Bedford @ Pioneer 3200m 12:06.19 9th · 4th on team 103.0 -0.028 PR SR RSR
2019-04-09 SEC-R: Bedford @ Pioneer 1600m 5:36.7 19th · 8th on team 102.5 -0.028 PR SR

2017 TF 95.4

Temperance Bedford (MI) · Grade 9

Date Meet Event Result Place Rating Difficulty PR/SR Flags
2017-04-25 SEC Red: Bedford @ Skyline 400m 1:05.27 21st · 19th on team -0.033 ★PR SR
2017-04-25 SEC Red: Bedford @ Skyline 800m 2:38.45 17th · 11th on team 95.4 -0.033 SR RSR

2016 TF 115.2

Temperance Bedford (MI) · Grade 8

Date Meet Event Result Place Rating Difficulty PR/SR Flags
2016-05-18 Saline Hornet MS Relays pv NH -0.042
2016-05-18 Saline Hornet MS Relays 1600m 5:44.47 20th · 6th on team 115.0 -0.042 PR SR
2016-05-17 Bedford @ Chelsea shot 21-09.50 -0.029
2016-05-17 Bedford @ Chelsea pv 7-00.00 -0.029
2016-05-17 Bedford @ Chelsea 800m 2:37.39 3rd · 2nd on team 115.5 -0.029 PR SR RSR

2015 TF 102.5

Temperance Bedford (MI) · Grade 7

Date Meet Event Result Place Rating Difficulty PR/SR Flags
2015-05-20 Saline Hornet MS Relays 1600m 6:27.56 32nd · 7th on team 102.5 -0.042 PR R SR RSR